createdAt,value
2022-08-10T00:00:04.590Z,29.7
2022-08-10T00:01:04.683Z,29.4
2022-08-10T00:02:04.591Z,29.3
2022-08-10T00:03:04.583Z,29.2
2022-08-10T00:04:04.526Z,29.1
2022-08-10T00:05:04.590Z,29.0
2022-08-10T00:06:04.514Z,29.0
2022-08-10T00:07:04.527Z,29.0
2022-08-10T00:08:04.573Z,28.9
2022-08-10T00:09:04.579Z,28.9
2022-08-10T00:10:04.531Z,28.8
2022-08-10T00:11:04.580Z,28.9
2022-08-10T00:12:04.703Z,29.1
2022-08-10T00:13:04.557Z,29.2
2022-08-10T00:14:04.616Z,29.2
2022-08-10T00:15:04.678Z,29.2
2022-08-10T00:16:04.537Z,29.2
2022-08-10T00:17:04.580Z,29.1
2022-08-10T00:18:04.536Z,29.1
2022-08-10T00:19:04.540Z,29.1
2022-08-10T00:20:08.716Z,29.2
2022-08-10T00:21:04.564Z,29.4
2022-08-10T00:22:04.634Z,29.3
2022-08-10T00:23:04.571Z,29.4
2022-08-10T00:24:04.596Z,29.5
2022-08-10T00:25:04.534Z,29.4
2022-08-10T00:26:04.603Z,29.4
2022-08-10T00:27:58.849Z,29.5
2022-08-10T00:28:07.669Z,30.6
2022-08-10T00:29:04.586Z,29.6
2022-08-10T00:30:04.540Z,29.5
2022-08-10T00:31:04.565Z,29.6
2022-08-10T00:32:04.544Z,29.7
2022-08-10T00:33:04.534Z,29.8
2022-08-10T00:34:04.580Z,29.7
2022-08-10T00:35:04.560Z,29.8
2022-08-10T00:36:04.612Z,29.8
2022-08-10T00:37:04.600Z,29.9
2022-08-10T00:38:04.610Z,29.9
2022-08-10T00:39:04.595Z,29.9
2022-08-10T00:40:04.599Z,29.8
2022-08-10T00:41:04.540Z,30.0
2022-08-10T00:42:07.599Z,30.1
2022-08-10T00:43:04.634Z,30.2
2022-08-10T00:44:04.531Z,30.0
2022-08-10T00:45:04.535Z,30.3
2022-08-10T00:46:04.580Z,30.6
2022-08-10T00:47:05.676Z,30.8
2022-08-10T00:48:04.597Z,31.0
2022-08-10T00:49:04.541Z,31.1
2022-08-10T00:50:04.602Z,31.2
2022-08-10T00:51:04.558Z,31.4
2022-08-10T00:52:04.550Z,31.3
2022-08-10T00:53:04.555Z,31.4
2022-08-10T00:54:04.651Z,31.3
2022-08-10T00:55:04.613Z,31.2
2022-08-10T00:57:07.871Z,31.3
2022-08-10T00:57:19.537Z,32.8
2022-08-10T00:58:51.616Z,31.6
2022-08-10T00:59:04.865Z,32.5
2022-08-10T01:00:04.567Z,31.9
2022-08-10T01:01:04.664Z,31.7
2022-08-10T01:02:10.131Z,31.7
2022-08-10T01:03:04.747Z,31.8
2022-08-10T01:04:58.019Z,31.8
2022-08-10T01:05:05.735Z,32.7
2022-08-10T01:06:04.557Z,31.6
2022-08-10T01:07:04.613Z,31.4
2022-08-10T01:08:04.604Z,31.2
2022-08-10T01:09:04.941Z,31.1
2022-08-10T01:10:04.647Z,30.9
2022-08-10T01:11:04.598Z,30.8
2022-08-10T01:12:40.476Z,30.7
2022-08-10T01:13:06.138Z,30.9
2022-08-10T01:14:04.576Z,30.6
2022-08-10T01:15:04.567Z,30.4
2022-08-10T01:16:04.555Z,30.5
2022-08-10T01:17:04.644Z,30.5
2022-08-10T01:18:04.611Z,30.7
2022-08-10T01:19:04.575Z,30.8
2022-08-10T01:20:04.851Z,31.0
2022-08-10T01:21:04.564Z,31.5
2022-08-10T01:22:04.635Z,31.8
2022-08-10T01:23:04.628Z,31.8
2022-08-10T01:24:04.935Z,31.9
2022-08-10T01:25:04.634Z,31.9
2022-08-10T01:26:10.827Z,32.0
2022-08-10T01:27:04.619Z,32.1
2022-08-10T01:28:04.594Z,32.0
2022-08-10T01:29:04.629Z,32.0
2022-08-10T01:30:04.633Z,32.1
2022-08-10T01:31:04.543Z,32.1
2022-08-10T01:32:04.549Z,32.1
2022-08-10T01:33:04.574Z,32.1
2022-08-10T01:34:04.645Z,32.1
2022-08-10T01:35:04.569Z,32.1
2022-08-10T01:36:04.558Z,32.0
2022-08-10T01:37:04.679Z,32.0
2022-08-10T01:38:04.635Z,32.0
2022-08-10T01:39:04.587Z,31.9
2022-08-10T01:40:04.608Z,31.8
2022-08-10T01:41:04.872Z,31.8
2022-08-10T01:42:04.557Z,31.8
2022-08-10T01:43:07.908Z,31.8
2022-08-10T01:44:04.563Z,31.8
2022-08-10T01:45:04.666Z,31.7
2022-08-10T01:46:04.568Z,31.8
2022-08-10T01:47:04.555Z,31.7
2022-08-10T01:48:04.633Z,31.7
2022-08-10T01:49:04.648Z,31.6
2022-08-10T01:50:04.671Z,31.6
2022-08-10T01:51:04.647Z,31.6
2022-08-10T01:53:56.119Z,32.6
2022-08-10T01:54:04.063Z,32.4
2022-08-10T01:55:04.144Z,31.9
2022-08-10T01:56:04.215Z,31.9
2022-08-10T01:57:04.094Z,32.0
2022-08-10T01:58:04.068Z,32.3
2022-08-10T01:59:04.382Z,32.5
2022-08-10T02:00:04.159Z,32.5
2022-08-10T02:01:04.126Z,32.5
2022-08-10T02:02:04.293Z,32.3
2022-08-10T02:03:04.101Z,32.3
2022-08-10T02:04:06.133Z,32.3
2022-08-10T02:05:04.128Z,32.4
2022-08-10T02:06:04.063Z,32.5
2022-08-10T02:07:04.082Z,32.5
2022-08-10T02:08:04.114Z,32.4
2022-08-10T02:09:06.590Z,32.4
2022-08-10T02:10:04.095Z,32.5
2022-08-10T02:11:04.177Z,32.7
2022-08-10T02:12:07.221Z,32.6
2022-08-10T02:13:04.357Z,32.6
2022-08-10T02:14:04.075Z,32.6
2022-08-10T02:15:04.064Z,32.6
2022-08-10T02:16:04.094Z,32.8
2022-08-10T02:17:04.124Z,32.7
2022-08-10T02:18:04.130Z,32.7
2022-08-10T02:19:04.114Z,32.6
2022-08-10T02:20:04.097Z,32.7
2022-08-10T02:21:04.084Z,32.7
2022-08-10T02:22:35.973Z,32.9
2022-08-10T02:23:04.128Z,33.4
2022-08-10T02:24:04.090Z,33.1
2022-08-10T02:25:04.124Z,33.2
2022-08-10T02:26:04.102Z,33.4
2022-08-10T02:27:04.900Z,33.4
2022-08-10T02:28:04.097Z,33.5
2022-08-10T02:29:04.165Z,33.8
2022-08-10T02:30:04.078Z,33.9
2022-08-10T02:31:06.207Z,34.4
2022-08-10T02:32:04.072Z,34.4
2022-08-10T02:33:04.075Z,34.3
2022-08-10T02:34:04.081Z,34.3
2022-08-10T02:35:04.099Z,34.2
2022-08-10T02:36:05.043Z,34.1
2022-08-10T02:37:04.091Z,34.0
2022-08-10T02:38:04.073Z,34.1
2022-08-10T02:39:04.091Z,34.2
2022-08-10T02:40:04.083Z,34.5
2022-08-10T02:45:15.216Z,35.0
2022-08-10T02:45:33.798Z,38.0
2022-08-10T02:46:04.189Z,35.9
2022-08-10T02:47:04.191Z,35.5
2022-08-10T02:48:04.199Z,35.1
2022-08-10T02:49:04.247Z,35.4
2022-08-10T02:50:04.200Z,35.2
2022-08-10T02:51:04.195Z,34.9
2022-08-10T02:52:06.465Z,35.3
2022-08-10T02:53:04.207Z,35.1
2022-08-10T02:54:04.069Z,35.0
2022-08-10T02:55:11.269Z,34.8
2022-08-10T02:56:04.086Z,34.6
2022-08-10T02:57:04.093Z,34.5
2022-08-10T02:58:16.748Z,34.3
2022-08-10T02:59:04.101Z,34.2
2022-08-10T03:01:04.790Z,33.9
2022-08-10T03:01:09.094Z,35.2
2022-08-10T03:02:04.287Z,34.0
2022-08-10T03:03:04.083Z,33.9
2022-08-10T03:04:04.080Z,33.9
2022-08-10T03:05:04.145Z,34.0
2022-08-10T03:06:04.100Z,34.0
2022-08-10T03:07:04.075Z,34.1
2022-08-10T03:08:04.111Z,34.0
2022-08-10T03:09:04.069Z,33.9
2022-08-10T03:10:04.550Z,34.0
2022-08-10T03:11:04.079Z,33.9
2022-08-10T03:12:37.603Z,33.9
2022-08-10T03:13:04.208Z,34.2
2022-08-10T03:14:04.133Z,33.9
2022-08-10T03:15:04.979Z,33.8
2022-08-10T03:16:04.085Z,33.7
2022-08-10T03:17:04.084Z,33.6
2022-08-10T03:18:04.098Z,33.7
2022-08-10T03:19:04.087Z,33.7
2022-08-10T03:20:37.049Z,33.7
2022-08-10T03:21:12.059Z,33.9
2022-08-10T03:22:04.539Z,33.5
2022-08-10T03:23:04.564Z,33.4
2022-08-10T03:24:30.484Z,33.3
2022-08-10T03:25:11.451Z,33.4
2022-08-10T03:26:22.231Z,33.8
2022-08-10T03:27:10.557Z,33.5
2022-08-10T03:28:11.068Z,33.4
2022-08-10T03:29:04.466Z,33.4
2022-08-10T03:30:28.459Z,33.5
2022-08-10T03:31:10.990Z,33.6
2022-08-10T03:32:03.708Z,33.3
2022-08-10T03:33:03.742Z,33.1
2022-08-10T03:34:04.769Z,33.0
2022-08-10T03:35:03.740Z,33.1
2022-08-10T03:36:41.485Z,33.1
2022-08-10T03:37:03.828Z,33.6
2022-08-10T03:38:03.741Z,33.0
2022-08-10T03:39:03.731Z,32.9
2022-08-10T03:40:03.723Z,32.8
2022-08-10T03:41:03.951Z,32.9
2022-08-10T03:42:03.763Z,32.9
2022-08-10T03:43:03.766Z,32.8
2022-08-10T03:44:03.721Z,32.8
2022-08-10T03:45:03.735Z,32.8
2022-08-10T03:46:03.867Z,32.8
2022-08-10T03:47:03.763Z,32.8
2022-08-10T03:48:03.717Z,32.9
2022-08-10T03:49:03.779Z,32.9
2022-08-10T03:50:45.302Z,32.9
2022-08-10T03:51:03.765Z,33.6
2022-08-10T03:52:04.756Z,32.9
2022-08-10T03:53:03.944Z,32.9
2022-08-10T03:54:07.028Z,32.8
2022-08-10T03:55:03.757Z,32.8
2022-08-10T03:56:29.236Z,32.7
2022-08-10T03:57:03.729Z,32.9
2022-08-10T03:58:03.968Z,32.8
2022-08-10T03:59:03.740Z,32.8
2022-08-10T04:00:03.749Z,32.8
2022-08-10T04:01:03.798Z,32.7
2022-08-10T04:02:43.822Z,32.8
2022-08-10T04:03:03.715Z,33.5
2022-08-10T04:04:12.344Z,33.0
2022-08-10T04:05:03.741Z,33.0
2022-08-10T04:06:03.740Z,32.9
2022-08-10T04:07:03.738Z,32.9
2022-08-10T04:08:03.744Z,32.7
2022-08-10T04:09:03.732Z,32.8
2022-08-10T04:10:03.774Z,32.7
2022-08-10T04:11:03.787Z,32.7
2022-08-10T04:12:03.736Z,32.9
2022-08-10T04:13:03.743Z,32.8
2022-08-10T04:14:03.755Z,32.8
2022-08-10T04:15:03.747Z,32.8
2022-08-10T04:16:07.452Z,32.8
2022-08-10T04:17:03.805Z,33.0
2022-08-10T04:18:06.265Z,32.9
2022-08-10T04:19:03.987Z,32.9
2022-08-10T04:20:03.765Z,32.9
2022-08-10T04:22:52.550Z,32.9
2022-08-10T04:22:56.717Z,34.4
2022-08-10T04:23:03.921Z,33.9
2022-08-10T04:24:03.723Z,33.0
2022-08-10T04:25:03.750Z,32.9
2022-08-10T04:26:03.779Z,32.9
2022-08-10T04:27:03.742Z,32.9
2022-08-10T04:28:03.752Z,32.9
2022-08-10T04:29:03.753Z,32.9
2022-08-10T04:30:03.745Z,32.9
2022-08-10T04:31:03.740Z,32.8
2022-08-10T04:32:03.765Z,32.8
2022-08-10T04:33:03.856Z,32.9
2022-08-10T04:34:08.739Z,32.9
2022-08-10T04:35:03.739Z,32.9
2022-08-10T04:36:03.784Z,32.8
2022-08-10T04:37:08.143Z,32.8
2022-08-10T04:38:03.755Z,32.9
2022-08-10T04:39:03.862Z,32.9
2022-08-10T04:40:03.729Z,32.8
2022-08-10T04:41:03.737Z,33.0
2022-08-10T04:42:03.772Z,33.1
2022-08-10T04:43:11.334Z,33.1
2022-08-10T04:44:03.756Z,33.5
2022-08-10T04:45:03.856Z,33.5
2022-08-10T04:46:03.785Z,33.3
2022-08-10T04:47:03.761Z,33.2
2022-08-10T04:48:03.856Z,33.4
2022-08-10T04:49:04.857Z,33.4
2022-08-10T04:50:03.780Z,33.5
2022-08-10T04:51:03.748Z,33.4
2022-08-10T04:52:03.754Z,33.5
2022-08-10T04:53:03.763Z,33.4
2022-08-10T04:54:08.099Z,33.3
2022-08-10T04:55:03.777Z,33.4
2022-08-10T04:56:03.763Z,33.3
2022-08-10T04:57:03.746Z,33.4
2022-08-10T04:58:03.751Z,33.4
2022-08-10T04:59:03.757Z,33.4
2022-08-10T05:00:03.766Z,33.5
2022-08-10T05:01:03.810Z,33.6
2022-08-10T05:02:28.270Z,33.6
2022-08-10T05:03:03.898Z,33.7
2022-08-10T05:04:34.906Z,33.6
2022-08-10T05:05:03.949Z,33.8
2022-08-10T05:06:03.743Z,33.7
2022-08-10T05:07:03.752Z,33.6
2022-08-10T05:08:03.753Z,33.8
2022-08-10T05:09:03.777Z,33.5
2022-08-10T05:10:06.703Z,33.7
2022-08-10T05:11:03.828Z,34.3
2022-08-10T05:12:03.751Z,34.1
2022-08-10T05:13:03.743Z,34.1
2022-08-10T05:14:03.759Z,34.3
2022-08-10T05:15:03.762Z,34.5
2022-08-10T05:16:03.754Z,34.3
2022-08-10T05:17:03.745Z,34.6
2022-08-10T05:18:09.755Z,35.1
2022-08-10T05:19:03.791Z,34.4
2022-08-10T05:20:06.513Z,34.5
2022-08-10T05:21:03.774Z,34.7
2022-08-10T05:22:05.037Z,34.7
2022-08-10T05:23:03.763Z,35.2
2022-08-10T05:24:03.773Z,35.1
2022-08-10T05:25:03.778Z,34.9
2022-08-10T05:26:03.864Z,35.1
2022-08-10T05:27:10.091Z,35.2
2022-08-10T05:28:06.536Z,35.7
2022-08-10T05:29:03.758Z,35.7
2022-08-10T05:30:04.162Z,35.8
2022-08-10T05:31:03.795Z,35.5
2022-08-10T05:32:03.748Z,35.2
2022-08-10T05:33:08.071Z,35.1
2022-08-10T05:34:03.779Z,34.8
2022-08-10T05:35:03.798Z,35.1
2022-08-10T05:36:03.775Z,35.2
2022-08-10T05:37:03.773Z,35.4
2022-08-10T05:38:13.490Z,35.4
2022-08-10T05:39:03.815Z,35.4
2022-08-10T05:40:03.797Z,35.3
2022-08-10T05:41:03.782Z,35.1
2022-08-10T05:42:03.768Z,35.0
2022-08-10T05:43:03.766Z,34.9
2022-08-10T05:44:46.797Z,35.4
2022-08-10T05:45:03.774Z,36.5
2022-08-10T05:46:17.571Z,35.7
2022-08-10T05:47:03.967Z,35.6
2022-08-10T05:48:56.087Z,35.5
2022-08-10T05:49:03.774Z,37.4
2022-08-10T05:50:03.796Z,35.6
2022-08-10T05:51:03.921Z,35.4
2022-08-10T05:52:03.773Z,35.2
2022-08-10T05:53:56.690Z,35.3
2022-08-10T05:54:06.605Z,36.7
2022-08-10T05:55:03.797Z,35.7
2022-08-10T05:56:03.789Z,35.5
2022-08-10T05:57:04.789Z,35.3
2022-08-10T05:58:03.794Z,35.2
2022-08-10T05:59:04.016Z,35.4
2022-08-10T06:00:32.837Z,36.0
2022-08-10T06:01:03.888Z,36.8
2022-08-10T06:02:33.610Z,36.4
2022-08-10T06:03:03.822Z,37.1
2022-08-10T06:04:03.775Z,37.2
2022-08-10T06:05:03.789Z,37.5
2022-08-10T06:06:03.822Z,37.5
2022-08-10T06:07:03.839Z,37.5
2022-08-10T06:08:03.806Z,37.8
2022-08-10T06:09:03.793Z,37.8
2022-08-10T06:10:03.959Z,37.8
2022-08-10T06:12:27.719Z,37.8
2022-08-10T06:12:53.290Z,38.8
2022-08-10T06:13:04.034Z,38.5
2022-08-10T06:14:14.732Z,37.6
2022-08-10T06:15:05.380Z,37.8
2022-08-10T06:16:03.806Z,37.8
2022-08-10T06:17:03.765Z,37.9
2022-08-10T06:18:03.779Z,37.6
2022-08-10T06:19:03.791Z,37.7
2022-08-10T06:20:03.777Z,37.8
2022-08-10T06:21:03.804Z,37.8
2022-08-10T06:22:04.863Z,38.0
2022-08-10T06:23:03.789Z,37.6
2022-08-10T06:24:03.787Z,37.3
2022-08-10T06:25:51.061Z,37.4
2022-08-10T06:26:14.868Z,39.2
2022-08-10T06:27:03.781Z,37.5
2022-08-10T06:28:03.769Z,37.7
2022-08-10T06:29:04.327Z,37.7
2022-08-10T06:30:03.781Z,37.8
2022-08-10T06:31:03.833Z,37.6
2022-08-10T06:32:03.773Z,37.4
2022-08-10T06:33:03.773Z,37.2
2022-08-10T06:34:04.035Z,37.0
2022-08-10T06:35:03.796Z,36.7
2022-08-10T06:36:03.808Z,36.5
2022-08-10T06:40:04.221Z,36.6
2022-08-10T06:41:04.157Z,36.3
2022-08-10T06:42:16.476Z,36.2
2022-08-10T06:43:04.154Z,36.2
2022-08-10T06:44:04.178Z,36.2
2022-08-10T06:45:04.169Z,36.5
2022-08-10T06:46:07.351Z,36.6
2022-08-10T06:47:04.186Z,36.5
2022-08-10T06:48:04.166Z,36.4
2022-08-10T06:49:04.202Z,36.3
2022-08-10T06:50:04.919Z,36.6
2022-08-10T06:51:06.425Z,36.5
2022-08-10T06:52:04.172Z,36.5
2022-08-10T06:53:04.179Z,36.4
2022-08-10T06:54:04.172Z,36.8
2022-08-10T06:55:05.079Z,36.8
2022-08-10T06:56:04.165Z,36.9
2022-08-10T06:57:18.214Z,36.9
2022-08-10T06:58:04.163Z,36.8
2022-08-10T06:59:04.197Z,36.6
2022-08-10T07:00:04.160Z,36.5
2022-08-10T07:01:04.244Z,36.6
2022-08-10T07:02:04.154Z,36.3
2022-08-10T07:03:07.273Z,36.4
2022-08-10T07:04:04.157Z,36.4
2022-08-10T07:05:04.205Z,36.2
2022-08-10T07:06:04.198Z,36.0
2022-08-10T07:07:04.160Z,35.8
2022-08-10T07:08:04.159Z,35.8
2022-08-10T07:09:04.162Z,35.8
2022-08-10T07:10:04.210Z,35.9
2022-08-10T07:11:06.675Z,35.7
2022-08-10T07:12:08.024Z,35.4
2022-08-10T07:13:04.187Z,35.6
2022-08-10T07:14:15.598Z,35.6
2022-08-10T07:15:04.159Z,35.6
2022-08-10T07:16:04.233Z,35.6
2022-08-10T07:17:04.238Z,35.6
2022-08-10T07:18:04.177Z,35.6
2022-08-10T07:19:04.169Z,35.7
2022-08-10T07:20:04.452Z,35.8
2022-08-10T07:21:04.169Z,36.0
2022-08-10T07:22:04.165Z,36.0
2022-08-10T07:23:55.718Z,35.8
2022-08-10T07:24:46.957Z,36.8
2022-08-10T07:25:06.930Z,36.2
2022-08-10T07:26:04.066Z,36.2
2022-08-10T07:27:04.077Z,36.0
2022-08-10T07:28:04.095Z,36.0
2022-08-10T07:29:04.076Z,35.8
2022-08-10T07:30:04.090Z,35.7
2022-08-10T07:31:04.084Z,35.5
2022-08-10T07:32:04.080Z,35.6
2022-08-10T07:33:04.093Z,35.4
2022-08-10T07:34:04.114Z,35.3
2022-08-10T07:35:04.131Z,35.1
2022-08-10T07:36:04.076Z,35.1
2022-08-10T07:37:04.104Z,35.1
2022-08-10T07:38:04.980Z,35.0
2022-08-10T07:39:04.078Z,34.9
2022-08-10T07:40:04.848Z,34.7
2022-08-10T07:41:05.562Z,34.5
2022-08-10T07:42:04.091Z,34.4
2022-08-10T07:43:04.106Z,34.4
2022-08-10T07:44:04.129Z,34.4
2022-08-10T07:45:04.101Z,34.3
2022-08-10T07:46:05.399Z,34.5
2022-08-10T07:47:04.334Z,34.3
2022-08-10T07:48:07.723Z,34.1
2022-08-10T07:49:15.330Z,34.0
2022-08-10T07:50:04.125Z,34.0
2022-08-10T07:51:04.095Z,33.6
2022-08-10T07:52:04.084Z,33.6
2022-08-10T07:53:04.449Z,33.3
2022-08-10T07:54:04.105Z,33.1
2022-08-10T07:55:04.120Z,33.1
2022-08-10T07:56:13.272Z,33.3
2022-08-10T07:57:05.481Z,33.5
2022-08-10T07:58:04.306Z,33.4
2022-08-10T07:59:04.093Z,33.4
2022-08-10T08:00:04.376Z,33.4
2022-08-10T08:01:04.082Z,33.5
2022-08-10T08:02:04.176Z,33.6
2022-08-10T08:03:04.091Z,33.6
2022-08-10T08:04:05.388Z,33.6
2022-08-10T08:05:04.104Z,33.5
2022-08-10T08:06:05.522Z,33.4
2022-08-10T08:07:05.705Z,33.4
2022-08-10T08:08:04.090Z,33.3
2022-08-10T08:11:05.124Z,33.9
2022-08-10T08:12:05.064Z,33.0
2022-08-10T08:13:04.026Z,33.1
2022-08-10T08:14:03.999Z,32.7
2022-08-10T08:16:15.637Z,32.8
2022-08-10T08:16:23.194Z,34.5
2022-08-10T08:17:04.020Z,33.4
2022-08-10T08:18:04.025Z,32.9
2022-08-10T08:19:37.881Z,32.8
2022-08-10T08:20:04.135Z,33.2
2022-08-10T08:21:04.059Z,32.8
2022-08-10T08:24:32.675Z,34.7
2022-08-10T08:25:04.019Z,33.5
2022-08-10T08:26:04.089Z,33.3
2022-08-10T08:27:04.047Z,33.1
2022-08-10T08:28:04.017Z,33.1
2022-08-10T08:29:04.877Z,33.1
2022-08-10T08:30:04.003Z,32.8
2022-08-10T08:31:04.039Z,32.9
2022-08-10T08:32:04.393Z,32.8
2022-08-10T08:33:04.029Z,32.8
2022-08-10T08:34:04.136Z,32.8
2022-08-10T08:35:04.024Z,32.3
2022-08-10T08:36:04.009Z,32.0
2022-08-10T08:37:04.033Z,32.1
2022-08-10T08:38:29.672Z,32.2
2022-08-10T08:39:04.076Z,32.4
2022-08-10T08:40:04.025Z,32.3
2022-08-10T08:41:05.195Z,32.3
2022-08-10T08:42:04.019Z,32.4
2022-08-10T08:43:04.040Z,32.2
2022-08-10T08:44:05.420Z,32.2
2022-08-10T08:45:04.078Z,32.5
2022-08-10T08:46:04.016Z,32.3
2022-08-10T08:47:04.019Z,32.3
2022-08-10T08:48:06.290Z,32.4
2022-08-10T08:49:05.212Z,32.1
2022-08-10T08:50:09.447Z,32.0
2022-08-10T08:51:04.018Z,31.7
2022-08-10T08:52:07.391Z,31.9
2022-08-10T08:53:09.650Z,32.1
2022-08-10T08:54:04.316Z,32.2
2022-08-10T08:55:04.116Z,32.1
2022-08-10T08:56:06.989Z,32.8
2022-08-10T08:57:04.071Z,31.8
2022-08-10T09:01:05.187Z,31.6
2022-08-10T09:02:04.539Z,31.6
2022-08-10T09:03:04.430Z,31.6
2022-08-10T09:04:04.429Z,31.0
2022-08-10T09:05:05.247Z,30.5
2022-08-10T09:06:04.407Z,30.3
2022-08-10T09:07:04.413Z,30.4
2022-08-10T09:08:04.419Z,30.4
2022-08-10T09:09:04.434Z,30.4
2022-08-10T09:10:04.431Z,30.3
2022-08-10T09:11:04.435Z,30.2
2022-08-10T09:12:04.465Z,30.4
2022-08-10T09:13:04.427Z,30.2
2022-08-10T09:14:04.418Z,30.1
2022-08-10T09:15:05.484Z,30.3
2022-08-10T09:16:04.437Z,30.6
2022-08-10T09:17:04.436Z,30.8
2022-08-10T09:18:04.435Z,30.8
2022-08-10T09:19:04.437Z,30.8
2022-08-10T09:20:04.483Z,31.0
2022-08-10T09:21:04.441Z,31.0
2022-08-10T09:22:17.488Z,31.0
2022-08-10T09:23:04.432Z,30.8
2022-08-10T09:24:06.175Z,30.5
2022-08-10T09:25:05.215Z,30.5
2022-08-10T09:26:04.441Z,30.5
2022-08-10T09:27:04.430Z,30.2
2022-08-10T09:28:04.643Z,30.3
2022-08-10T09:29:13.212Z,30.2
2022-08-10T09:30:04.464Z,30.3
2022-08-10T09:31:21.430Z,30.3
2022-08-10T09:36:14.702Z,30.3
2022-08-10T09:36:33.449Z,32.3
2022-08-10T09:37:04.487Z,31.1
2022-08-10T09:38:04.443Z,31.0
2022-08-10T09:39:04.451Z,30.8
2022-08-10T09:40:46.245Z,30.8
2022-08-10T09:41:12.255Z,31.9
2022-08-10T09:42:04.504Z,30.4
2022-08-10T09:43:24.994Z,30.4
2022-08-10T09:44:04.458Z,30.5
2022-08-10T09:45:04.434Z,30.3
2022-08-10T09:46:04.435Z,30.5
2022-08-10T09:47:04.443Z,29.4
2022-08-10T09:49:59.733Z,29.9
2022-08-10T09:50:06.550Z,29.9
2022-08-10T09:52:03.844Z,28.9
2022-08-10T09:53:03.819Z,28.9
2022-08-10T09:54:03.862Z,28.8
2022-08-10T09:55:03.923Z,28.5
2022-08-10T09:56:18.636Z,28.5
2022-08-10T09:57:41.289Z,28.7
2022-08-10T09:58:03.851Z,29.1
2022-08-10T09:59:26.960Z,28.8
2022-08-10T10:00:05.398Z,30.4
2022-08-10T10:01:03.853Z,29.5
2022-08-10T10:02:04.495Z,29.5
2022-08-10T10:03:03.882Z,29.5
2022-08-10T10:04:03.842Z,29.7
2022-08-10T10:05:03.902Z,29.6
2022-08-10T10:06:03.879Z,29.5
2022-08-10T10:07:03.861Z,29.4
2022-08-10T10:08:03.947Z,29.3
2022-08-10T10:09:10.145Z,29.5
2022-08-10T10:10:03.859Z,29.5
2022-08-10T10:11:03.846Z,29.4
2022-08-10T10:12:05.189Z,29.4
2022-08-10T10:13:03.871Z,29.3
2022-08-10T10:14:06.447Z,29.4
2022-08-10T10:15:10.568Z,29.1
2022-08-10T10:16:04.278Z,29.3
2022-08-10T10:17:04.299Z,29.4
2022-08-10T10:18:11.020Z,29.4
2022-08-10T10:19:03.721Z,29.5
2022-08-10T10:20:03.703Z,29.4
2022-08-10T10:21:03.769Z,29.5
2022-08-10T10:22:03.737Z,29.5
2022-08-10T10:23:03.714Z,29.4
2022-08-10T10:24:21.207Z,29.5
2022-08-10T10:25:19.779Z,29.8
2022-08-10T10:26:10.563Z,29.8
2022-08-10T10:27:05.552Z,29.7
2022-08-10T10:28:04.011Z,29.9
2022-08-10T10:29:44.795Z,29.5
2022-08-10T10:30:03.762Z,30.7
2022-08-10T10:31:03.926Z,29.5
2022-08-10T10:32:03.727Z,29.4
2022-08-10T10:33:03.719Z,28.8
2022-08-10T10:34:03.719Z,29.0
2022-08-10T10:35:03.740Z,29.1
2022-08-10T10:36:03.770Z,29.1
2022-08-10T10:37:03.739Z,29.2
2022-08-10T10:38:03.782Z,29.2
2022-08-10T10:39:03.721Z,28.8
2022-08-10T10:40:03.815Z,28.3
2022-08-10T10:41:03.782Z,28.4
2022-08-10T10:42:04.962Z,28.4
2022-08-10T10:43:03.857Z,28.5
2022-08-10T10:44:04.064Z,28.4
2022-08-10T10:45:03.747Z,28.4
2022-08-10T10:46:03.715Z,28.4
2022-08-10T10:47:03.738Z,28.7
2022-08-10T10:48:03.750Z,28.8
2022-08-10T10:49:03.740Z,28.5
2022-08-10T10:50:03.755Z,28.1
2022-08-10T10:51:08.397Z,27.9
2022-08-10T10:52:03.768Z,27.7
2022-08-10T10:53:03.776Z,27.8
2022-08-10T10:54:03.749Z,27.8
2022-08-10T10:55:03.763Z,27.9
2022-08-10T10:56:14.929Z,27.9
2022-08-10T10:57:03.769Z,28.1
2022-08-10T10:58:03.870Z,28.2
2022-08-10T10:59:54.113Z,28.3
2022-08-10T11:00:03.753Z,29.5
2022-08-10T11:01:03.782Z,28.5
2022-08-10T11:02:03.733Z,28.5
2022-08-10T11:03:03.728Z,28.7
2022-08-10T11:04:03.777Z,28.7
2022-08-10T11:06:40.279Z,28.7
2022-08-10T11:06:45.683Z,29.8
2022-08-10T11:07:03.749Z,29.1
2022-08-10T11:08:03.723Z,29.0
2022-08-10T11:09:03.804Z,28.9
2022-08-10T11:10:15.633Z,28.8
2022-08-10T11:11:03.942Z,29.0
2022-08-10T11:12:04.776Z,28.8
2022-08-10T11:14:23.221Z,28.7
2022-08-10T11:14:31.921Z,29.9
2022-08-10T11:15:03.842Z,28.8
2022-08-10T11:16:03.837Z,28.7
2022-08-10T11:17:03.744Z,28.6
2022-08-10T11:18:03.740Z,28.5
2022-08-10T11:19:03.764Z,28.5
2022-08-10T11:20:04.105Z,28.5
2022-08-10T11:21:03.786Z,28.6
2022-08-10T11:22:03.810Z,28.3
2022-08-10T11:23:03.759Z,28.6
2022-08-10T11:24:47.492Z,28.3
2022-08-10T11:25:03.752Z,28.9
2022-08-10T11:26:03.771Z,28.5
2022-08-10T11:27:03.738Z,28.4
2022-08-10T11:28:03.760Z,28.5
2022-08-10T11:29:03.748Z,28.3
2022-08-10T11:30:04.007Z,28.3
2022-08-10T11:31:03.767Z,28.3
2022-08-10T11:32:03.773Z,28.3
2022-08-10T11:33:03.757Z,28.4
2022-08-10T11:34:46.924Z,28.4
2022-08-10T11:35:11.605Z,29.1
2022-08-10T11:36:03.885Z,28.6
2022-08-10T11:37:03.808Z,28.6
2022-08-10T11:38:30.023Z,28.6
2022-08-10T11:39:14.490Z,29.0
2022-08-10T11:40:03.992Z,29.0
2022-08-10T11:41:05.569Z,28.8
2022-08-10T11:42:19.161Z,30.0
2022-08-10T11:43:03.794Z,29.1
2022-08-10T11:44:03.759Z,28.9
2022-08-10T11:45:05.112Z,28.7
2022-08-10T11:46:07.880Z,28.9
2022-08-10T11:47:03.837Z,29.0
2022-08-10T11:48:03.756Z,28.9
2022-08-10T11:49:04.082Z,28.8
2022-08-10T11:50:05.331Z,28.8
2022-08-10T11:51:03.899Z,28.7
2022-08-10T11:52:06.022Z,28.7
2022-08-10T11:53:05.324Z,28.7
2022-08-10T11:54:03.873Z,28.4
2022-08-10T11:55:04.012Z,28.3
2022-08-10T11:56:04.670Z,28.4
2022-08-10T11:57:03.905Z,28.3
2022-08-10T11:58:03.865Z,28.2
2022-08-10T11:59:17.111Z,28.2
2022-08-10T12:01:03.844Z,28.1
2022-08-10T12:02:03.797Z,28.0
2022-08-10T12:03:03.931Z,27.9
2022-08-10T12:04:03.807Z,27.7
2022-08-10T12:05:03.791Z,27.6
2022-08-10T12:06:03.801Z,27.8
2022-08-10T12:07:03.783Z,27.7
2022-08-10T12:10:09.635Z,28.5
2022-08-10T12:10:17.155Z,28.9
2022-08-10T12:11:03.747Z,27.5
2022-08-10T12:12:03.812Z,27.1
2022-08-10T12:13:03.758Z,27.3
2022-08-10T12:14:20.772Z,27.3
2022-08-10T12:15:03.749Z,27.2
2022-08-10T12:16:05.733Z,27.3
2022-08-10T12:17:03.928Z,27.3
2022-08-10T12:18:03.791Z,27.4
2022-08-10T12:19:03.794Z,27.4
2022-08-10T12:20:04.033Z,27.6
2022-08-10T12:21:03.783Z,27.5
2022-08-10T12:22:06.058Z,27.3
2022-08-10T12:23:03.828Z,27.4
2022-08-10T12:24:03.768Z,27.4
2022-08-10T12:25:03.811Z,27.4
2022-08-10T12:26:10.494Z,27.6
2022-08-10T12:27:13.063Z,27.8
2022-08-10T12:28:05.359Z,27.7
2022-08-10T12:29:05.195Z,27.7
2022-08-10T12:30:05.074Z,27.8
2022-08-10T12:31:05.004Z,27.8
2022-08-10T12:32:05.044Z,27.7
2022-08-10T12:33:05.045Z,27.6
2022-08-10T12:34:05.110Z,27.7
2022-08-10T12:35:05.643Z,27.7
2022-08-10T12:36:17.869Z,27.7
2022-08-10T12:37:05.703Z,27.5
2022-08-10T12:38:06.427Z,27.5
2022-08-10T12:39:07.260Z,27.5
2022-08-10T12:40:33.464Z,27.4
2022-08-10T12:41:05.124Z,27.5
2022-08-10T12:42:06.203Z,27.4
2022-08-10T12:44:04.777Z,27.4
2022-08-10T12:44:12.295Z,27.8
2022-08-10T12:45:05.650Z,26.6
2022-08-10T12:46:06.988Z,26.8
2022-08-10T12:47:13.946Z,26.5
2022-08-10T12:48:05.658Z,25.9
2022-08-10T12:49:05.054Z,26.4
2022-08-10T12:50:31.462Z,26.5
2022-08-10T12:51:05.662Z,26.4
2022-08-10T12:52:05.164Z,26.5
2022-08-10T12:53:06.632Z,26.4
2022-08-10T12:54:05.097Z,26.4
2022-08-10T12:55:05.748Z,26.0
2022-08-10T12:56:05.136Z,25.5
2022-08-10T12:57:05.184Z,26.2
2022-08-10T12:58:05.445Z,26.2
2022-08-10T12:59:05.673Z,27.2
2022-08-10T13:00:05.650Z,25.9
2022-08-10T13:01:16.114Z,25.8
2022-08-10T13:02:09.611Z,25.9
2022-08-10T13:03:05.701Z,26.0
2022-08-10T13:04:20.734Z,26.0
2022-08-10T13:05:05.648Z,26.0
2022-08-10T13:06:05.673Z,26.3
2022-08-10T13:07:05.775Z,26.2
2022-08-10T13:08:27.567Z,26.3
2022-08-10T13:09:05.404Z,26.4
2022-08-10T13:10:05.670Z,26.4
2022-08-10T13:11:05.684Z,26.5
2022-08-10T13:12:40.366Z,27.9
2022-08-10T13:13:05.695Z,27.0
2022-08-10T13:14:05.664Z,26.9
2022-08-10T13:15:45.834Z,26.9
2022-08-10T13:16:05.371Z,27.3
2022-08-10T13:17:05.669Z,26.9
2022-08-10T13:18:05.238Z,26.7
2022-08-10T13:19:05.733Z,26.7
2022-08-10T13:20:13.540Z,26.8
2022-08-10T13:21:20.106Z,26.3
2022-08-10T13:22:05.793Z,26.7
2022-08-10T13:23:05.695Z,26.8
2022-08-10T13:24:05.776Z,26.8
2022-08-10T13:25:05.111Z,26.8
2022-08-10T13:26:05.663Z,26.9
2022-08-10T13:27:25.096Z,26.8
2022-08-10T13:28:36.431Z,26.9
2022-08-10T13:29:13.090Z,27.0
2022-08-10T13:30:05.136Z,26.9
2022-08-10T13:33:09.866Z,27.4
2022-08-10T13:34:44.027Z,27.0
2022-08-10T13:35:05.345Z,27.2
2022-08-10T13:36:05.130Z,26.9
2022-08-10T13:37:04.985Z,26.8
2022-08-10T13:38:05.690Z,26.8
2022-08-10T13:39:05.364Z,26.8
2022-08-10T13:40:05.661Z,26.8
2022-08-10T13:41:05.936Z,26.8